Aérodrome :
LOGIN :

S'inscrire | Disclaimer

   EN    FR    IT 

 










Légende :    VFR   VFR Marginal   IFR   IFR Intensif   IFR Très Intensif
Visi : 
Plafond : 
>= 8 km
>= 3000ft
5 à 8 km
1000 à 3000 ft
1500m à 5 km
500 à 1000 ft
800 à 1500m
200 à 500 ft
< 800m
< 200 ft
Symboles :   Orages  Brouillard  Fortes neiges  Fortes précipitations  Vent > 20 kt
SIGMETs :   Divers  Orages  Givrage  Turbulence  Onde Orograph.  Cendres Volcan.







- Altitude de l'aérodrome : 2540 ft
- Code IATA : HRM


DAFH - Hassi R'Mel

DERNIER METAR :
  • 200800Z 01008KT 9999 BKN030 16/09 Q1019

METARs EXPIRÉS :
  • 200700Z 36008KT 9999 BKN030 14/10 Q1018
  • 200600Z 00000KT CAVOK 14/10 Q1018

Prévision TAF périmée.
Pas de NOTAMs connus pour ce terrain.
1 SIGMET publié pour la FIR Alger (DAAA) :
 
Turbulence forte
DAAA SIGMET 3 VALID 200800/201200 DAAA ALGIERS FIR SEV TURB FCST WI N3801 E00600 - N3514 E00711 - N3253 E00647 - N3233 E00427 - N3344 E00347 - N3704 E00510 - N3801 E00600 TOP FL250/360 NC=



MET'MAP, la Météo Aéronautique d'un coup d'oeil ! - Copyright ORBIFLY Décembre 2007 - Disclaimer

ORBIFLY MET'MAP TEAM :

Programmation & Développement : Alexandra Zaïnal
Conception & Développement : Baudouin d'Aumeries
Co-Programmation & Développement : Marc-Olivier Méhu
Soutien technique & logistique : Manuel Goepfert

Contact : metmap@orbifly.com




SOURCES & CREDITS :

   NOAA